Dades meteomassalio
Diari Summary for Juny 12, 2017 Units:  Metric    English   Both
« Previous Day
Next Day »
Diari Semanal Mensual Anual Personalitzat
  Maxima: Minima: Mijana:
Temperatura: 34.2 °C 19.1 °C 26.5 °C
Rosada: 16.9 °C 10.1 °C 13.9 °C
Humitat: 78 % 26 % 49 %
Velocitat del vent: 25.9 km/h 0.0 km/h 6.5 km/h
Racha vent: 25.9 km/h - -
Vent:- - South
Pressio: 1017.5 hPa 1012.4 hPa -
Pluja: 0.0 mm    
Historical Graphs
 
 
Tabular Data for Juny 12, 2017
Time Temperature Dew Point Pressure Wind Wind Speed Wind Gust Humidity Rainfall Rate (Hourly) solar Conditions
00:03 25.3 °C 12.8 °C 1014.8 hPa Calm     46 % 0.0 mm 0.0 W/m2 CLR
00:08 25.2 °C 12.8 °C 1014.8 hPa Calm     46 % 0.0 mm 0.0 W/m2 CLR
00:13 25.1 °C 12.7 °C 1014.8 hPa Calm     46 % 0.0 mm 0.0 W/m2 CLR
00:18 24.9 °C 12.8 °C 1014.8 hPa Calm     47 % 0.0 mm 0.0 W/m2 CLR
00:23 24.7 °C 12.9 °C 1014.8 hPa Calm     48 % 0.0 mm 0.0 W/m2 CLR
00:28 24.5 °C 13.1 °C 1015.1 hPa Calm     49 % 0.0 mm 0.0 W/m2 CLR
00:33 24.4 °C 13.0 °C 1015.1 hPa Calm     49 % 0.0 mm 0.0 W/m2 CLR
00:38 24.3 °C 12.9 °C 1015.1 hPa Calm     49 % 0.0 mm 0.0 W/m2 CLR
00:43 24.2 °C 12.8 °C 1015.1 hPa Calm     49 % 0.0 mm 0.0 W/m2 CLR
00:48 24.0 °C 12.9 °C 1015.1 hPa Calm     50 % 0.0 mm 0.0 W/m2 CLR
00:53 23.8 °C 13.1 °C 1015.1 hPa Calm     51 % 0.0 mm 0.0 W/m2 CLR
00:58 23.7 °C 13.2 °C 1015.1 hPa Calm     52 % 0.0 mm 0.0 W/m2 CLR
01:03 23.6 °C 13.1 °C 1015.1 hPa Calm     52 % 0.0 mm 0.0 W/m2 CLR
01:08 23.4 °C 13.3 °C 1015.1 hPa Calm     53 % 0.0 mm 0.0 W/m2 CLR
01:13 23.3 °C 13.2 °C 1015.1 hPa Calm     53 % 0.0 mm 0.0 W/m2 CLR
01:18 23.1 °C 13.2 °C 1015.1 hPa Calm     54 % 0.0 mm 0.0 W/m2 CLR
01:23 22.9 °C 13.1 °C 1015.1 hPa Calm     54 % 0.0 mm 0.0 W/m2 CLR
01:28 22.8 °C 13.1 °C 1015.1 hPa Calm     54 % 0.0 mm 0.0 W/m2 CLR
01:33 22.8 °C 13.3 °C 1015.1 hPa Calm     55 % 0.0 mm 0.0 W/m2 CLR
01:38 22.7 °C 13.2 °C 1015.5 hPa Calm     55 % 0.0 mm 0.0 W/m2 CLR
01:43 22.5 °C 13.3 °C 1015.5 hPa Calm     56 % 0.0 mm 0.0 W/m2 CLR
01:48 22.3 °C 13.4 °C 1015.5 hPa Calm     57 % 0.0 mm 0.0 W/m2 CLR
01:53 22.2 °C 13.3 °C 1015.5 hPa Calm     57 % 0.0 mm 0.0 W/m2 CLR
01:58 22.1 °C 13.7 °C 1015.5 hPa Calm     59 % 0.0 mm 0.0 W/m2 CLR
02:03 22.0 °C 13.6 °C 1015.5 hPa Calm     59 % 0.0 mm 0.0 W/m2 CLR
02:08 21.8 °C 13.7 °C 1015.5 hPa Calm     60 % 0.0 mm 0.0 W/m2 CLR
02:13 21.6 °C 13.8 °C 1015.5 hPa Calm     61 % 0.0 mm 0.0 W/m2 CLR
02:18 21.4 °C 13.6 °C 1015.5 hPa Calm     61 % 0.0 mm 0.0 W/m2 CLR
02:23 21.2 °C 13.7 °C 1015.5 hPa Calm     62 % 0.0 mm 0.0 W/m2 CLR
02:28 21.0 °C 13.7 °C 1015.5 hPa Calm     63 % 0.0 mm 0.0 W/m2 CLR
02:33 20.8 °C 13.7 °C 1015.5 hPa Calm     64 % 0.0 mm 0.0 W/m2 CLR
02:38 20.6 °C 13.8 °C 1015.5 hPa Calm     65 % 0.0 mm 0.0 W/m2 CLR
02:44 20.3 °C 14.0 °C 1015.5 hPa Calm     67 % 0.0 mm 0.0 W/m2 CLR
02:49 20.0 °C 13.9 °C 1015.5 hPa Calm     68 % 0.0 mm 0.0 W/m2 CLR
02:54 19.8 °C 13.8 °C 1015.5 hPa Calm     68 % 0.0 mm 0.0 W/m2 CLR
02:59 19.8 °C 13.7 °C 1015.5 hPa Calm     68 % 0.0 mm 0.0 W/m2 CLR
03:04 19.7 °C 13.6 °C 1015.8 hPa Calm     68 % 0.0 mm 0.0 W/m2 CLR
03:09 19.6 °C 13.7 °C 1015.8 hPa Calm     69 % 0.0 mm 0.0 W/m2 CLR
03:14 19.5 °C 13.7 °C 1015.8 hPa Calm     69 % 0.0 mm 0.0 W/m2 CLR
03:19 19.3 °C 13.7 °C 1015.8 hPa Calm     70 % 0.0 mm 0.0 W/m2 CLR
03:24 19.2 °C 13.6 °C 1015.8 hPa Calm     70 % 0.0 mm 0.0 W/m2 CLR
03:29 19.1 °C 13.2 °C 1015.8 hPa Calm     69 % 0.0 mm 0.0 W/m2 CLR
03:34 19.1 °C 13.1 °C 1015.8 hPa SW 7.4 km/h 7.4 km/h 68 % 0.0 mm 0.0 W/m2 CLR
03:39 19.2 °C 13.1 °C 1015.8 hPa Calm     68 % 0.0 mm 0.0 W/m2 CLR
03:44 19.3 °C 13.1 °C 1015.8 hPa Calm     67 % 0.0 mm 0.0 W/m2 CLR
03:49 19.4 °C 13.1 °C 1015.8 hPa Calm     67 % 0.0 mm 0.0 W/m2 CLR
03:54 19.4 °C 13.2 °C 1016.1 hPa Calm     67 % 0.0 mm 0.0 W/m2 CLR
03:59 19.5 °C 13.2 °C 1015.8 hPa Calm     67 % 0.0 mm 0.0 W/m2 CLR
04:04 19.5 °C 13.2 °C 1015.8 hPa Calm     67 % 0.0 mm 0.0 W/m2 CLR
04:09 19.4 °C 13.1 °C 1016.1 hPa Calm     67 % 0.0 mm 0.0 W/m2 CLR
04:14 19.4 °C 13.4 °C 1015.8 hPa Calm     68 % 0.0 mm 0.0 W/m2 CLR
04:19 19.7 °C 13.6 °C 1016.1 hPa WSW 11.1 km/h 11.1 km/h 68 % 0.0 mm 0.0 W/m2 CLR
04:24 20.2 °C 13.6 °C 1016.1 hPa WSW 11.1 km/h 11.1 km/h 66 % 0.0 mm 0.0 W/m2 CLR
04:29 20.5 °C 13.7 °C 1016.1 hPa WSW 5.6 km/h 5.6 km/h 65 % 0.0 mm 0.0 W/m2 CLR
04:34 20.6 °C 13.6 °C 1016.1 hPa Calm     64 % 0.0 mm 0.0 W/m2 CLR
04:39 20.5 °C 13.4 °C 1016.1 hPa Calm     64 % 0.0 mm 0.0 W/m2 CLR
04:49 20.2 °C 13.6 °C 1016.5 hPa Calm   0.2 km/h 66 % 0.0 mm 0.0 W/m2 CLR
04:54 20.0 °C 13.7 °C 1016.5 hPa SW 5.6 km/h 5.6 km/h 67 % 0.0 mm 0.0 W/m2 CLR
04:59 19.9 °C 13.8 °C 1016.5 hPa Calm     68 % 0.0 mm 0.0 W/m2 CLR
05:04 19.8 °C 13.7 °C 1016.5 hPa Calm     68 % 0.0 mm 0.0 W/m2 CLR
05:09 19.8 °C 13.9 °C 1016.5 hPa Calm     69 % 0.0 mm 0.0 W/m2 CLR
05:14 19.7 °C 14.1 °C 1016.5 hPa Calm     70 % 0.0 mm 0.0 W/m2 CLR
05:19 19.7 °C 14.1 °C 1016.5 hPa Calm     70 % 0.0 mm 0.0 W/m2 CLR
05:24 19.8 °C 14.4 °C 1016.5 hPa Calm     71 % 0.0 mm 0.0 W/m2 CLR
05:29 19.7 °C 14.3 °C 1016.5 hPa Calm     71 % 0.0 mm 0.0 W/m2 CLR
05:34 19.7 °C 14.3 °C 1016.5 hPa Calm     71 % 0.0 mm 0.0 W/m2 CLR
05:39 19.6 °C 14.2 °C 1016.5 hPa Calm     71 % 0.0 mm 0.0 W/m2 CLR
05:44 19.6 °C 14.4 °C 1016.5 hPa Calm     72 % 0.0 mm 0.0 W/m2 CLR
05:49 19.6 °C 14.8 °C 1016.8 hPa WNW 1.9 km/h   74 % 0.0 mm 0.0 W/m2 CLR
05:54 19.6 °C 14.8 °C 1016.8 hPa WNW 5.6 km/h 5.6 km/h 74 % 0.0 mm 0.0 W/m2 CLR
05:59 19.7 °C 14.7 °C 1016.8 hPa Calm     73 % 0.0 mm 0.0 W/m2 CLR
06:04 19.7 °C 14.9 °C 1016.8 hPa WSW 1.9 km/h   74 % 0.0 mm 0.0 W/m2 CLR
06:09 19.7 °C 14.9 °C 1016.8 hPa Calm     74 % 0.0 mm 0.0 W/m2 CLR
06:14 19.7 °C 14.9 °C 1016.8 hPa Calm     74 % 0.0 mm 0.0 W/m2 CLR
06:19 19.6 °C 15.0 °C 1016.8 hPa Calm     75 % 0.0 mm 0.0 W/m2 OVC
06:25 19.5 °C 14.9 °C 1016.8 hPa Calm     75 % 0.0 mm 0.0 W/m2 OVC
06:30 19.4 °C 14.8 °C 1017.2 hPa Calm     75 % 0.0 mm 5.0 W/m2 OVC
06:35 19.3 °C 15.0 °C 1017.2 hPa Calm     76 % 0.0 mm 7.0 W/m2 BKN
06:40 19.3 °C 15.0 °C 1017.2 hPa Calm     76 % 0.0 mm 9.0 W/m2 BKN
06:45 19.2 °C 14.9 °C 1017.2 hPa Calm     76 % 0.0 mm 12.0 W/m2 BKN
06:50 19.2 °C 14.8 °C 1017.2 hPa Calm     76 % 0.0 mm 16.0 W/m2 BKN
06:55 19.2 °C 14.8 °C 1017.2 hPa Calm     76 % 0.0 mm 18.0 W/m2 BKN
07:00 19.1 °C 15.0 °C 1017.5 hPa Calm     77 % 0.0 mm 21.0 W/m2 BKN
07:05 19.1 °C 15.0 °C 1017.2 hPa Calm     77 % 0.0 mm 28.0 W/m2 BKN
07:10 19.2 °C 15.2 °C 1017.5 hPa Calm     78 % 0.0 mm 37.0 W/m2 BKN
07:15 19.3 °C 15.2 °C 1017.5 hPa Calm     77 % 0.0 mm 46.0 W/m2 SCT
07:20 19.3 °C 15.2 °C 1017.2 hPa Calm     77 % 0.0 mm 54.0 W/m2 SCT
07:25 19.5 °C 15.3 °C 1017.2 hPa Calm     77 % 0.0 mm 65.0 W/m2 SCT
07:30 19.7 °C 15.3 °C 1017.5 hPa Calm     76 % 0.0 mm 76.0 W/m2 SCT
07:35 19.8 °C 15.5 °C 1017.5 hPa Calm     76 % 0.0 mm 91.0 W/m2 FEW
07:40 20.0 °C 15.4 °C 1017.5 hPa Calm     75 % 0.0 mm 104.0 W/m2 CLR
07:45 20.2 °C 15.7 °C 1017.5 hPa Calm     75 % 0.0 mm 118.0 W/m2 CLR
07:50 20.5 °C 15.7 °C 1017.5 hPa Calm     74 % 0.0 mm 135.0 W/m2 CLR
07:55 20.8 °C 16.0 °C 1017.5 hPa Calm     74 % 0.0 mm 149.0 W/m2 CLR
08:00 21.1 °C 16.0 °C 1017.5 hPa Calm     73 % 0.0 mm 165.0 W/m2 CLR
08:05 21.2 °C 15.8 °C 1017.5 hPa NNW 9.3 km/h 9.3 km/h 71 % 0.0 mm 181.0 W/m2 CLR
08:10 21.3 °C 15.8 °C 1017.5 hPa NNW 8.0 km/h 8.0 km/h 71 % 0.0 mm 197.0 W/m2 CLR
08:15 21.4 °C 15.9 °C 1017.5 hPa WNW 14.8 km/h 14.8 km/h 71 % 0.0 mm 216.0 W/m2 CLR
08:20 21.4 °C 15.9 °C 1017.5 hPa NW 13.0 km/h 13.0 km/h 71 % 0.0 mm 230.0 W/m2 CLR
08:25 21.5 °C 15.8 °C 1017.5 hPa NW 14.8 km/h 14.8 km/h 70 % 0.0 mm 244.0 W/m2 CLR
08:30 21.6 °C 15.8 °C 1017.5 hPa NW 11.1 km/h 11.1 km/h 70 % 0.0 mm 260.0 W/m2 CLR
08:35 21.7 °C 15.9 °C 1017.5 hPa West 13.0 km/h 13.0 km/h 70 % 0.0 mm 274.0 W/m2 CLR
08:40 21.8 °C 15.8 °C 1017.5 hPa West 8.0 km/h 8.0 km/h 69 % 0.0 mm 290.0 W/m2 CLR
08:45 21.9 °C 15.9 °C 1017.5 hPa NW 16.7 km/h 16.7 km/h 69 % 0.0 mm 306.0 W/m2 CLR
08:50 21.9 °C 15.7 °C 1017.5 hPa WSW 14.8 km/h 14.8 km/h 68 % 0.0 mm 318.0 W/m2 CLR
08:55 22.1 °C 16.1 °C 1017.5 hPa WNW 11.1 km/h 11.1 km/h 69 % 0.0 mm 336.0 W/m2 CLR
09:00 22.2 °C 16.1 °C 1017.5 hPa WNW 14.8 km/h 14.8 km/h 68 % 0.0 mm 350.0 W/m2 CLR
09:05 22.2 °C 16.0 °C 1017.5 hPa West 9.3 km/h 9.3 km/h 68 % 0.0 mm 364.0 W/m2 CLR
09:10 22.3 °C 16.1 °C 1017.5 hPa NW 13.0 km/h 13.0 km/h 68 % 0.0 mm 380.0 W/m2 CLR
09:15 22.4 °C 15.9 °C 1017.5 hPa NW 11.1 km/h 11.1 km/h 67 % 0.0 mm 396.0 W/m2 CLR
09:20 22.4 °C 16.2 °C 1017.5 hPa NW 9.3 km/h 9.3 km/h 68 % 0.0 mm 413.0 W/m2 CLR
09:25 22.6 °C 16.4 °C 1017.5 hPa NW 11.3 km/h 11.3 km/h 68 % 0.0 mm 427.0 W/m2 CLR
09:30 22.8 °C 16.3 °C 1017.5 hPa NW 12.9 km/h 12.9 km/h 67 % 0.0 mm 441.0 W/m2 CLR
09:35 23.0 °C 16.3 °C 1017.5 hPa NW 13.0 km/h 13.0 km/h 66 % 0.0 mm 455.0 W/m2 CLR
09:40 23.2 °C 16.3 °C 1017.5 hPa NW 8.0 km/h 8.0 km/h 65 % 0.0 mm 473.0 W/m2 CLR
09:45 23.3 °C 16.1 °C 1017.5 hPa West 9.3 km/h 9.3 km/h 64 % 0.0 mm 487.0 W/m2 CLR
09:50 23.4 °C 16.2 °C 1017.5 hPa West 7.4 km/h 7.4 km/h 64 % 0.0 mm 499.0 W/m2 CLR
09:55 23.6 °C 16.3 °C 1017.5 hPa NW 11.3 km/h 11.3 km/h 64 % 0.0 mm 515.0 W/m2 CLR
10:00 23.7 °C 15.9 °C 1017.5 hPa WNW 13.0 km/h 13.0 km/h 62 % 0.0 mm 527.0 W/m2 CLR
10:05 23.8 °C 16.1 °C 1017.5 hPa West 13.0 km/h 13.0 km/h 62 % 0.0 mm 543.0 W/m2 CLR
10:10 23.9 °C 16.2 °C 1017.2 hPa West 11.1 km/h 11.1 km/h 62 % 0.0 mm 557.0 W/m2 CLR
10:15 24.2 °C 16.5 °C 1017.2 hPa WNW 9.3 km/h 9.3 km/h 62 % 0.0 mm 571.0 W/m2 CLR
10:20 24.4 °C 16.4 °C 1017.2 hPa Calm     61 % 0.0 mm 587.0 W/m2 CLR
10:26 24.8 °C 16.8 °C 1017.2 hPa West 5.6 km/h 5.6 km/h 61 % 0.0 mm 605.0 W/m2 CLR
10:31 25.0 °C 16.4 °C 1017.2 hPa West 5.6 km/h 5.6 km/h 59 % 0.0 mm 617.0 W/m2 CLR
10:32 25.1 °C 16.5 °C 1017.2 hPa WNW 6.4 km/h 6.4 km/h 59 % 0.0 mm 619.0 W/m2 CLR
10:37 25.2 °C 16.3 °C 1017.2 hPa WSW 9.3 km/h 9.3 km/h 58 % 0.0 mm 629.0 W/m2 CLR
10:42 25.3 °C 16.5 °C 1017.2 hPa Calm     58 % 0.0 mm 647.0 W/m2 CLR
10:47 25.3 °C 16.2 °C 1016.8 hPa WSW 14.8 km/h 14.8 km/h 57 % 0.0 mm 659.0 W/m2 CLR
10:52 25.4 °C 16.3 °C 1017.2 hPa WNW 12.9 km/h 12.9 km/h 57 % 0.0 mm 670.0 W/m2 CLR
10:57 25.6 °C 16.2 °C 1016.8 hPa West 1.6 km/h   56 % 0.0 mm 682.0 W/m2 CLR
11:02 25.8 °C 16.4 °C 1016.8 hPa NNW 9.3 km/h 9.3 km/h 56 % 0.0 mm 694.0 W/m2 CLR
11:07 25.9 °C 16.5 °C 1016.8 hPa West 9.3 km/h 9.3 km/h 56 % 0.0 mm 707.0 W/m2 CLR
11:12 26.2 °C 16.7 °C 1016.8 hPa NW 13.0 km/h 13.0 km/h 56 % 0.0 mm 719.0 W/m2 CLR
11:17 26.6 °C 16.2 °C 1016.8 hPa WNW 14.8 km/h 14.8 km/h 53 % 0.0 mm 728.0 W/m2 CLR
11:22 26.6 °C 16.5 °C 1016.8 hPa NW 8.0 km/h 8.0 km/h 54 % 0.0 mm 740.0 W/m2 CLR
11:27 26.7 °C 16.6 °C 1016.8 hPa North 11.1 km/h 11.1 km/h 54 % 0.0 mm 754.0 W/m2 CLR
11:32 26.8 °C 16.7 °C 1016.8 hPa NW 13.0 km/h 13.0 km/h 54 % 0.0 mm 761.0 W/m2 CLR
11:37 26.9 °C 16.5 °C 1016.8 hPa Calm     53 % 0.0 mm 770.0 W/m2 CLR
11:42 27.2 °C 16.5 °C 1016.8 hPa NW 7.4 km/h 7.4 km/h 52 % 0.0 mm 780.0 W/m2 CLR
11:47 27.3 °C 16.6 °C 1016.8 hPa North 3.7 km/h   52 % 0.0 mm 793.0 W/m2 CLR
11:52 27.6 °C 16.5 °C 1016.8 hPa West 5.6 km/h   51 % 0.0 mm 802.0 W/m2 CLR
11:57 27.6 °C 16.9 °C 1016.8 hPa Calm     52 % 0.0 mm 809.0 W/m2 CLR
12:02 27.9 °C 16.8 °C 1016.8 hPa Calm     51 % 0.0 mm 819.0 W/m2 CLR
12:07 28.3 °C 16.6 °C 1016.8 hPa West 1.9 km/h 1.9 km/h 49 % 0.0 mm 824.0 W/m2 CLR
12:12 28.1 °C 16.7 °C 1016.8 hPa Calm   0.3 km/h 50 % 0.0 mm 833.0 W/m2 CLR
12:18 28.3 °C 16.9 °C 1016.5 hPa Calm   2.6 km/h 50 % 0.0 mm 842.0 W/m2 CLR
12:23 28.3 °C 16.6 °C 1016.5 hPa Calm     49 % 0.0 mm 849.0 W/m2 CLR
12:28 28.6 °C 16.5 °C 1016.5 hPa Calm     48 % 0.0 mm 856.0 W/m2 CLR
12:33 28.9 °C 16.8 °C 1016.5 hPa Calm     48 % 0.0 mm 863.0 W/m2 CLR
12:38 28.9 °C 16.8 °C 1016.5 hPa Calm     48 % 0.0 mm 870.0 W/m2 CLR
12:43 29.1 °C 16.7 °C 1016.5 hPa NE 9.3 km/h 9.3 km/h 47 % 0.0 mm 879.0 W/m2 CLR
12:48 29.3 °C 16.8 °C 1016.5 hPa Calm     47 % 0.0 mm 884.0 W/m2 CLR
12:53 29.3 °C 16.5 °C 1016.5 hPa Calm     46 % 0.0 mm 889.0 W/m2 CLR
12:58 29.4 °C 16.9 °C 1016.5 hPa ENE 7.4 km/h 7.4 km/h 47 % 0.0 mm 891.0 W/m2 CLR
13:03 29.6 °C 16.7 °C 1016.1 hPa North 5.6 km/h 5.6 km/h 46 % 0.0 mm 896.0 W/m2 CLR
13:08 29.7 °C 16.4 °C 1016.1 hPa ENE 7.4 km/h 7.4 km/h 45 % 0.0 mm 905.0 W/m2 CLR
13:13 30.0 °C 16.4 °C 1016.1 hPa Calm     44 % 0.0 mm 911.0 W/m2 CLR
13:18 30.1 °C 15.8 °C 1016.1 hPa Calm     42 % 0.0 mm 909.0 W/m2 CLR
13:23 30.3 °C 15.6 °C 1016.1 hPa Calm     41 % 0.0 mm 916.0 W/m2 CLR
13:28 30.4 °C 15.7 °C 1016.1 hPa Calm     41 % 0.0 mm 918.0 W/m2 CLR
13:33 30.7 °C 15.5 °C 1016.1 hPa Calm     40 % 0.0 mm 918.0 W/m2 CLR
13:38 30.9 °C 15.7 °C 1015.8 hPa Calm     40 % 0.0 mm 923.0 W/m2 CLR
13:43 30.9 °C 15.7 °C 1015.8 hPa NE 8.0 km/h 8.0 km/h 40 % 0.0 mm 923.0 W/m2 CLR
13:48 31.0 °C 16.2 °C 1015.8 hPa NE 3.2 km/h 3.2 km/h 41 % 0.0 mm 923.0 W/m2 CLR
13:53 31.4 °C 16.2 °C 1015.8 hPa NE 7.4 km/h 7.4 km/h 40 % 0.0 mm 925.0 W/m2 CLR
13:58 31.5 °C 16.3 °C 1015.8 hPa ENE 7.4 km/h 7.4 km/h 40 % 0.0 mm 923.0 W/m2 CLR
14:03 31.5 °C 15.9 °C 1015.5 hPa NE 5.6 km/h 5.6 km/h 39 % 0.0 mm 926.0 W/m2 CLR
14:08 31.5 °C 16.7 °C 1015.5 hPa ENE 11.1 km/h 11.1 km/h 41 % 0.0 mm 923.0 W/m2 CLR
14:13 31.7 °C 16.8 °C 1015.5 hPa ENE 1.6 km/h 1.6 km/h 41 % 0.0 mm 919.0 W/m2 CLR
14:18 31.9 °C 16.2 °C 1015.1 hPa Calm     39 % 0.0 mm 919.0 W/m2 CLR
14:23 31.9 °C 16.3 °C 1015.1 hPa NE 11.1 km/h 11.1 km/h 39 % 0.0 mm 921.0 W/m2 CLR
14:28 32.1 °C 15.9 °C 1015.1 hPa Calm     38 % 0.0 mm 919.0 W/m2 CLR
14:33 32.2 °C 16.1 °C 1015.1 hPa NE 11.3 km/h 11.3 km/h 38 % 0.0 mm 916.0 W/m2 CLR
14:38 32.2 °C 16.1 °C 1014.8 hPa Calm     38 % 0.0 mm 916.0 W/m2 CLR
14:43 32.6 °C 16.4 °C 1014.8 hPa WNW 5.6 km/h 5.6 km/h 38 % 0.0 mm 912.0 W/m2 CLR
14:48 32.8 °C 16.2 °C 1014.8 hPa ESE 9.7 km/h 9.7 km/h 37 % 0.0 mm 904.0 W/m2 CLR
14:53 32.8 °C 16.2 °C 1014.8 hPa ENE 18.5 km/h 18.5 km/h 37 % 0.0 mm 902.0 W/m2 CLR
14:58 32.9 °C 15.9 °C 1014.8 hPa NNE 13.0 km/h 13.0 km/h 36 % 0.0 mm 900.0 W/m2 CLR
15:03 33.0 °C 15.9 °C 1014.8 hPa SE 11.1 km/h 11.1 km/h 36 % 0.0 mm 895.0 W/m2 CLR
15:08 32.7 °C 16.6 °C 1014.4 hPa ESE 14.8 km/h 14.8 km/h 38 % 0.0 mm 891.0 W/m2 CLR
15:13 32.6 °C 16.0 °C 1014.8 hPa ENE 3.7 km/h   37 % 0.0 mm 881.0 W/m2 CLR
15:18 32.7 °C 16.1 °C 1014.4 hPa SE 14.8 km/h 14.8 km/h 37 % 0.0 mm 875.0 W/m2 CLR
15:23 32.8 °C 16.2 °C 1014.4 hPa Calm     37 % 0.0 mm 874.0 W/m2 CLR
15:28 33.2 °C 16.1 °C 1014.4 hPa ESE 5.6 km/h 5.6 km/h 36 % 0.0 mm 867.0 W/m2 CLR
15:33 33.4 °C 15.9 °C 1014.1 hPa SE 8.0 km/h 8.0 km/h 35 % 0.0 mm 856.0 W/m2 CLR
15:38 33.4 °C 14.4 °C 1014.4 hPa ESE 16.1 km/h 16.1 km/h 32 % 0.0 mm 858.0 W/m2 CLR
15:43 33.3 °C 13.4 °C 1014.1 hPa ESE 11.1 km/h 11.1 km/h 30 % 0.0 mm 851.0 W/m2 CLR
15:48 33.3 °C 13.4 °C 1014.1 hPa East 14.8 km/h 14.8 km/h 30 % 0.0 mm 844.0 W/m2 CLR
15:53 33.4 °C 12.9 °C 1014.1 hPa ESE 11.3 km/h 11.3 km/h 29 % 0.0 mm 838.0 W/m2 CLR
15:58 33.6 °C 12.6 °C 1014.1 hPa ENE 16.7 km/h 16.7 km/h 28 % 0.0 mm 830.0 W/m2 CLR
16:03 33.7 °C 12.6 °C 1014.1 hPa East 9.7 km/h 9.7 km/h 28 % 0.0 mm 821.0 W/m2 CLR
16:08 33.8 °C 12.7 °C 1014.1 hPa SE 16.7 km/h 16.7 km/h 28 % 0.0 mm 810.0 W/m2 CLR
16:13 33.8 °C 12.7 °C 1013.8 hPa ESE 16.7 km/h 16.7 km/h 28 % 0.0 mm 802.0 W/m2 CLR
16:18 33.8 °C 12.2 °C 1013.8 hPa East 16.7 km/h 16.7 km/h 27 % 0.0 mm 791.0 W/m2 CLR
16:23 33.8 °C 12.7 °C 1013.8 hPa SSE 14.8 km/h 14.8 km/h 28 % 0.0 mm 784.0 W/m2 CLR
16:28 33.8 °C 12.7 °C 1013.8 hPa ESE 14.8 km/h 14.8 km/h 28 % 0.0 mm 772.0 W/m2 CLR
16:33 34.0 °C 12.9 °C 1013.8 hPa SE 9.7 km/h 9.7 km/h 28 % 0.0 mm 759.0 W/m2 CLR
16:38 34.2 °C 12.6 °C 1013.8 hPa ESE 22.2 km/h 22.2 km/h 27 % 0.0 mm 751.0 W/m2 CLR
16:43 34.1 °C 12.4 °C 1013.4 hPa East 13.0 km/h 13.0 km/h 27 % 0.0 mm 742.0 W/m2 CLR
16:48 33.9 °C 11.7 °C 1013.8 hPa ENE 13.0 km/h 13.0 km/h 26 % 0.0 mm 733.0 W/m2 CLR
16:53 33.9 °C 11.7 °C 1013.4 hPa East 18.5 km/h 18.5 km/h 26 % 0.0 mm 719.0 W/m2 CLR
17:03 33.6 °C 11.4 °C 1013.4 hPa East 20.4 km/h 20.4 km/h 26 % 0.0 mm 698.0 W/m2 CLR
17:08 33.7 °C 11.6 °C 1013.4 hPa ESE 13.0 km/h 13.0 km/h 26 % 0.0 mm 687.0 W/m2 CLR
17:13 33.6 °C 11.4 °C 1013.4 hPa ESE 22.2 km/h 22.2 km/h 26 % 0.0 mm 671.0 W/m2 CLR
17:18 33.7 °C 12.1 °C 1013.4 hPa ESE 18.5 km/h 18.5 km/h 27 % 0.0 mm 657.0 W/m2 CLR
17:23 33.8 °C 11.6 °C 1013.4 hPa ESE 16.7 km/h 16.7 km/h 26 % 0.0 mm 650.0 W/m2 CLR
17:28 33.7 °C 11.6 °C 1013.4 hPa ESE 16.1 km/h 16.1 km/h 26 % 0.0 mm 635.0 W/m2 CLR
17:33 33.6 °C 12.1 °C 1013.1 hPa East 7.4 km/h 7.4 km/h 27 % 0.0 mm 619.0 W/m2 CLR
17:38 33.8 °C 12.2 °C 1013.1 hPa East 11.3 km/h 11.3 km/h 27 % 0.0 mm 608.0 W/m2 CLR
17:43 33.7 °C 12.1 °C 1013.1 hPa ENE 16.7 km/h 16.7 km/h 27 % 0.0 mm 596.0 W/m2 CLR
17:48 33.7 °C 12.1 °C 1013.1 hPa ESE 11.1 km/h 11.1 km/h 27 % 0.0 mm 582.0 W/m2 CLR
17:53 33.8 °C 11.7 °C 1013.1 hPa East 14.5 km/h 14.5 km/h 26 % 0.0 mm 568.0 W/m2 CLR
17:58 33.8 °C 12.2 °C 1013.1 hPa SE 20.9 km/h 20.9 km/h 27 % 0.0 mm 552.0 W/m2 CLR
18:03 33.7 °C 12.6 °C 1013.1 hPa SE 14.5 km/h 14.5 km/h 28 % 0.0 mm 538.0 W/m2 CLR
18:04 33.7 °C 12.6 °C 1013.1 hPa SE 16.7 km/h 16.7 km/h 28 % 0.0 mm 534.0 W/m2 CLR
18:09 33.6 °C 12.6 °C 1013.1 hPa South 18.5 km/h 18.5 km/h 28 % 0.0 mm 520.0 W/m2 CLR
18:14 33.5 °C 12.5 °C 1013.1 hPa SE 9.3 km/h 9.3 km/h 28 % 0.0 mm 506.0 W/m2 CLR
18:19 33.6 °C 12.1 °C 1012.8 hPa SE 14.8 km/h 14.8 km/h 27 % 0.0 mm 492.0 W/m2 CLR
18:24 33.6 °C 11.4 °C 1012.8 hPa ESE 24.1 km/h 24.1 km/h 26 % 0.0 mm 476.0 W/m2 CLR
18:29 33.4 °C 11.3 °C 1012.8 hPa SSE 18.5 km/h 18.5 km/h 26 % 0.0 mm 462.0 W/m2 CLR
18:34 33.4 °C 11.3 °C 1012.8 hPa East 17.7 km/h 17.7 km/h 26 % 0.0 mm 450.0 W/m2 CLR
18:39 33.2 °C 11.7 °C 1012.8 hPa East 14.8 km/h 14.8 km/h 27 % 0.0 mm 432.0 W/m2 CLR
18:44 33.3 °C 11.7 °C 1012.8 hPa SE 14.8 km/h 14.8 km/h 27 % 0.0 mm 418.0 W/m2 CLR
18:49 33.3 °C 11.8 °C 1012.8 hPa SE 22.5 km/h 22.5 km/h 27 % 0.0 mm 399.0 W/m2 CLR
18:54 33.3 °C 12.3 °C 1012.4 hPa SE 14.8 km/h 14.8 km/h 28 % 0.0 mm 383.0 W/m2 CLR
18:55 33.3 °C 12.3 °C 1012.4 hPa ESE 16.7 km/h 16.7 km/h 28 % 0.0 mm 380.0 W/m2 CLR
19:00 33.3 °C 11.8 °C 1012.4 hPa SE 25.9 km/h 25.9 km/h 27 % 0.0 mm 367.0 W/m2 CLR
19:05 33.2 °C 12.3 °C 1012.4 hPa East 14.8 km/h 14.8 km/h 28 % 0.0 mm 350.0 W/m2 CLR
19:10 33.2 °C 12.3 °C 1012.8 hPa ESE 20.4 km/h 20.4 km/h 28 % 0.0 mm 332.0 W/m2 CLR
19:15 33.2 °C 12.2 °C 1012.4 hPa ESE 18.5 km/h 18.5 km/h 28 % 0.0 mm 318.0 W/m2 CLR
19:20 33.1 °C 12.1 °C 1012.4 hPa ESE 18.5 km/h 18.5 km/h 28 % 0.0 mm 304.0 W/m2 CLR
19:25 32.9 °C 12.0 °C 1012.4 hPa ESE 16.7 km/h 16.7 km/h 28 % 0.0 mm 290.0 W/m2 CLR
19:30 32.8 °C 11.9 °C 1012.4 hPa East 16.7 km/h 16.7 km/h 28 % 0.0 mm 271.0 W/m2 CLR
19:32 32.8 °C 11.9 °C 1012.4 hPa SE 18.5 km/h 18.5 km/h 28 % 0.0 mm 267.0 W/m2 CLR
19:37 32.7 °C 11.8 °C 1012.4 hPa East 18.5 km/h 18.5 km/h 28 % 0.0 mm 250.0 W/m2 CLR
19:42 32.6 °C 12.3 °C 1012.4 hPa ESE 22.5 km/h 22.5 km/h 29 % 0.0 mm 237.0 W/m2 CLR
19:47 32.4 °C 11.6 °C 1012.8 hPa SE 18.5 km/h 18.5 km/h 28 % 0.0 mm 223.0 W/m2 CLR
19:52 32.3 °C 11.4 °C 1012.8 hPa SE 18.5 km/h 18.5 km/h 28 % 0.0 mm 206.0 W/m2 CLR
19:57 32.2 °C 11.3 °C 1012.4 hPa ESE 18.5 km/h 18.5 km/h 28 % 0.0 mm 186.0 W/m2 CLR
20:02 32.1 °C 11.3 °C 1012.4 hPa ESE 13.0 km/h 13.0 km/h 28 % 0.0 mm 171.0 W/m2 CLR
20:07 32.1 °C 11.3 °C 1012.4 hPa ESE 13.0 km/h 13.0 km/h 28 % 0.0 mm 155.0 W/m2 CLR
20:12 31.9 °C 11.7 °C 1012.4 hPa SSE 13.0 km/h 13.0 km/h 29 % 0.0 mm 139.0 W/m2 CLR
20:17 31.8 °C 11.6 °C 1012.8 hPa SE 11.1 km/h 11.1 km/h 29 % 0.0 mm 125.0 W/m2 CLR
20:22 31.7 °C 11.4 °C 1012.8 hPa Calm   1.0 km/h 29 % 0.0 mm 107.0 W/m2 CLR
20:27 31.4 °C 11.3 °C 1012.8 hPa ESE 13.0 km/h 13.0 km/h 29 % 0.0 mm 93.0 W/m2 CLR
20:32 31.3 °C 11.1 °C 1012.8 hPa ESE 11.1 km/h 11.1 km/h 29 % 0.0 mm 81.0 W/m2 FEW
20:37 31.1 °C 11.0 °C 1012.8 hPa SE 11.1 km/h 11.1 km/h 29 % 0.0 mm 69.0 W/m2 FEW
20:42 30.9 °C 10.8 °C 1012.8 hPa SE 13.0 km/h 13.0 km/h 29 % 0.0 mm 47.0 W/m2 SCT
20:47 30.8 °C 11.2 °C 1012.8 hPa SE 6.4 km/h 6.4 km/h 30 % 0.0 mm 30.0 W/m2 BKN
20:52 30.7 °C 11.2 °C 1012.8 hPa SSE 9.3 km/h 9.3 km/h 30 % 0.0 mm 35.0 W/m2 BKN
20:57 30.6 °C 11.0 °C 1012.8 hPa SSE 9.3 km/h 9.3 km/h 30 % 0.0 mm 28.0 W/m2 BKN
21:02 30.4 °C 10.9 °C 1012.8 hPa SE 9.3 km/h 9.3 km/h 30 % 0.0 mm 19.0 W/m2 BKN
21:07 30.3 °C 11.3 °C 1012.8 hPa SSE 11.1 km/h 11.1 km/h 31 % 0.0 mm 14.0 W/m2 BKN
21:12 30.2 °C 10.7 °C 1012.8 hPa South 13.0 km/h 13.0 km/h 30 % 0.0 mm 12.0 W/m2 BKN
21:17 30.2 °C 10.7 °C 1012.8 hPa South 13.0 km/h 13.0 km/h 30 % 0.0 mm 11.0 W/m2 BKN
21:22 30.0 °C 10.6 °C 1012.8 hPa SSE 16.7 km/h 16.7 km/h 30 % 0.0 mm 9.0 W/m2 BKN
21:27 29.9 °C 10.4 °C 1012.8 hPa South 18.5 km/h 18.5 km/h 30 % 0.0 mm 5.0 W/m2 OVC
21:32 29.7 °C 10.3 °C 1012.8 hPa South 9.3 km/h 9.3 km/h 30 % 0.0 mm 0.0 W/m2 OVC
21:33 29.7 °C 10.3 °C 1012.8 hPa South 11.3 km/h 11.3 km/h 30 % 0.0 mm 0.0 W/m2 OVC
21:38 29.5 °C 10.1 °C 1012.8 hPa South 11.3 km/h 11.3 km/h 30 % 0.0 mm 0.0 W/m2 OVC
21:43 29.4 °C 10.5 °C 1012.8 hPa SSE 11.1 km/h 11.1 km/h 31 % 0.0 mm 0.0 W/m2 OVC
21:48 29.2 °C 10.3 °C 1013.1 hPa South 14.5 km/h 14.5 km/h 31 % 0.0 mm 0.0 W/m2 CLR
21:53 29.1 °C 10.7 °C 1013.1 hPa South 11.1 km/h 11.1 km/h 32 % 0.0 mm 0.0 W/m2 CLR
21:58 28.9 °C 10.6 °C 1013.1 hPa SSE 11.1 km/h 11.1 km/h 32 % 0.0 mm 0.0 W/m2 CLR
22:03 28.8 °C 10.9 °C 1013.1 hPa Calm     33 % 0.0 mm 0.0 W/m2 CLR
22:08 28.7 °C 10.8 °C 1013.1 hPa Calm     33 % 0.0 mm 0.0 W/m2 CLR
22:13 28.5 °C 11.1 °C 1013.1 hPa Calm     34 % 0.0 mm 0.0 W/m2 CLR
22:18 28.3 °C 10.9 °C 1013.1 hPa Calm     34 % 0.0 mm 0.0 W/m2 CLR
22:23 28.2 °C 11.3 °C 1013.1 hPa Calm     35 % 0.0 mm 0.0 W/m2 CLR
22:28 27.9 °C 11.1 °C 1013.1 hPa Calm     35 % 0.0 mm 0.0 W/m2 CLR
22:33 27.8 °C 11.3 °C 1013.4 hPa Calm     36 % 0.0 mm 0.0 W/m2 CLR
22:38 27.6 °C 11.2 °C 1013.4 hPa Calm     36 % 0.0 mm 0.0 W/m2 CLR
22:43 27.5 °C 11.1 °C 1013.4 hPa Calm     36 % 0.0 mm 0.0 W/m2 CLR
22:48 27.3 °C 11.3 °C 1013.4 hPa Calm     37 % 0.0 mm 0.0 W/m2 CLR
22:53 27.2 °C 11.2 °C 1013.4 hPa Calm     37 % 0.0 mm 0.0 W/m2 CLR
22:58 27.0 °C 11.1 °C 1013.4 hPa Calm     37 % 0.0 mm 0.0 W/m2 CLR
23:03 26.9 °C 11.4 °C 1013.8 hPa Calm     38 % 0.0 mm 0.0 W/m2 CLR
23:08 26.7 °C 11.2 °C 1013.8 hPa Calm     38 % 0.0 mm 0.0 W/m2 CLR
23:13 26.6 °C 11.4 °C 1013.8 hPa Calm     39 % 0.0 mm 0.0 W/m2 CLR
23:18 26.2 °C 11.6 °C 1013.8 hPa Calm     40 % 0.0 mm 0.0 W/m2 CLR
23:23 25.9 °C 11.3 °C 1013.8 hPa Calm     40 % 0.0 mm 0.0 W/m2 CLR
23:28 25.7 °C 11.5 °C 1013.8 hPa Calm     41 % 0.0 mm 0.0 W/m2 CLR
23:33 25.4 °C 11.6 °C 1013.8 hPa Calm     42 % 0.0 mm 0.0 W/m2 CLR
23:38 25.2 °C 11.7 °C 1013.8 hPa Calm     43 % 0.0 mm 0.0 W/m2 CLR
23:43 24.9 °C 12.2 °C 1013.8 hPa Calm     45 % 0.0 mm 0.0 W/m2 CLR
23:48 24.6 °C 11.6 °C 1013.8 hPa Calm     44 % 0.0 mm 0.0 W/m2 CLR
23:53 24.4 °C 11.4 °C 1013.8 hPa Calm     44 % 0.0 mm 0.0 W/m2 CLR
23:58 24.4 °C 11.4 °C 1013.8 hPa Calm     44 % 0.0 mm 0.0 W/m2 CLR
Lo Temps de Massalio
Compliments of Weather Underground - 1.25 mb